sensor_id;sensor_type;location;lat;lon;timestamp;pressure;altitude;pressure_sealevel;temperature;humidity
9935;BME280;5006;41.828;23.478;2023-03-14T00:00:17;90420.59;;;12.92;37.45
9935;BME280;5006;41.828;23.478;2023-03-14T00:01:23;90425.13;;;11.80;39.29
9935;BME280;5006;41.828;23.478;2023-03-14T00:02:29;90412.56;;;11.49;39.67
9935;BME280;5006;41.828;23.478;2023-03-14T00:03:34;90410.59;;;12.46;38.91
9935;BME280;5006;41.828;23.478;2023-03-14T00:04:39;90409.53;;;12.29;38.80
9935;BME280;5006;41.828;23.478;2023-03-14T00:05:44;90410.16;;;11.82;39.67
9935;BME280;5006;41.828;23.478;2023-03-14T00:06:50;90404.53;;;12.28;38.74
9935;BME280;5006;41.828;23.478;2023-03-14T00:07:54;90403.38;;;12.29;38.91
9935;BME280;5006;41.828;23.478;2023-03-14T00:09:00;90393.47;;;11.26;39.68
9935;BME280;5006;41.828;23.478;2023-03-14T00:10:07;90398.53;;;10.85;39.82
9935;BME280;5006;41.828;23.478;2023-03-14T00:11:17;90391.56;;;9.94;41.94
9935;BME280;5006;41.828;23.478;2023-03-14T00:12:22;90391.97;;;11.07;40.48
9935;BME280;5006;41.828;23.478;2023-03-14T00:13:27;90388.09;;;11.29;40.55
9935;BME280;5006;41.828;23.478;2023-03-14T00:14:32;90388.50;;;12.10;39.49
9935;BME280;5006;41.828;23.478;2023-03-14T00:15:38;90390.13;;;12.01;38.78
9935;BME280;5006;41.828;23.478;2023-03-14T00:16:45;90387.91;;;12.47;38.10
9935;BME280;5006;41.828;23.478;2023-03-14T00:17:51;90373.69;;;11.88;38.58
9935;BME280;5006;41.828;23.478;2023-03-14T00:18:55;90374.94;;;12.35;37.80
9935;BME280;5006;41.828;23.478;2023-03-14T00:20:01;90378.75;;;12.85;38.00
9935;BME280;5006;41.828;23.478;2023-03-14T00:21:12;90382.56;;;12.43;37.79
9935;BME280;5006;41.828;23.478;2023-03-14T00:22:18;90379.53;;;12.31;38.06
9935;BME280;5006;41.828;23.478;2023-03-14T00:23:22;90381.63;;;12.60;37.90
9935;BME280;5006;41.828;23.478;2023-03-14T00:24:28;90378.38;;;12.82;37.69
9935;BME280;5006;41.828;23.478;2023-03-14T00:25:35;90379.06;;;12.46;37.55
9935;BME280;5006;41.828;23.478;2023-03-14T00:26:42;90380.16;;;11.98;38.46
9935;BME280;5006;41.828;23.478;2023-03-14T00:27:50;90377.75;;;12.10;38.66
9935;BME280;5006;41.828;23.478;2023-03-14T00:28:56;90385.06;;;12.13;39.19
9935;BME280;5006;41.828;23.478;2023-03-14T00:30:00;90375.88;;;11.07;41.25
9935;BME280;5006;41.828;23.478;2023-03-14T00:31:10;90372.88;;;10.57;42.15
9935;BME280;5006;41.828;23.478;2023-03-14T00:32:15;90375.53;;;10.84;42.03
9935;BME280;5006;41.828;23.478;2023-03-14T00:33:21;90377.81;;;10.96;40.92
9935;BME280;5006;41.828;23.478;2023-03-14T00:34:28;90377.34;;;11.22;40.52
9935;BME280;5006;41.828;23.478;2023-03-14T00:35:34;90373.88;;;11.32;40.38
9935;BME280;5006;41.828;23.478;2023-03-14T00:36:39;90376.72;;;10.80;41.43
9935;BME280;5006;41.828;23.478;2023-03-14T00:37:44;90369.72;;;11.17;40.88
9935;BME280;5006;41.828;23.478;2023-03-14T00:38:50;90373.19;;;11.04;41.23
9935;BME280;5006;41.828;23.478;2023-03-14T00:39:56;90371.66;;;11.03;41.57
9935;BME280;5006;41.828;23.478;2023-03-14T00:41:04;90371.97;;;11.26;41.11
9935;BME280;5006;41.828;23.478;2023-03-14T00:42:11;90368.81;;;11.62;40.55
9935;BME280;5006;41.828;23.478;2023-03-14T00:43:17;90370.19;;;10.57;41.28
9935;BME280;5006;41.828;23.478;2023-03-14T00:44:22;90360.78;;;11.48;41.36
9935;BME280;5006;41.828;23.478;2023-03-14T00:45:28;90367.22;;;11.75;40.31
9935;BME280;5006;41.828;23.478;2023-03-14T00:46:33;90364.06;;;10.46;42.44
9935;BME280;5006;41.828;23.478;2023-03-14T00:47:38;90360.78;;;12.27;40.37
9935;BME280;5006;41.828;23.478;2023-03-14T00:48:44;90355.53;;;12.06;39.75
9935;BME280;5006;41.828;23.478;2023-03-14T00:49:50;90356.06;;;10.42;41.46
9935;BME280;5006;41.828;23.478;2023-03-14T00:50:57;90358.72;;;10.32;42.03
9935;BME280;5006;41.828;23.478;2023-03-14T00:52:02;90350.28;;;10.58;41.32
9935;BME280;5006;41.828;23.478;2023-03-14T00:53:07;90351.00;;;10.82;41.65
9935;BME280;5006;41.828;23.478;2023-03-14T00:54:12;90347.00;;;12.66;38.90
9935;BME280;5006;41.828;23.478;2023-03-14T00:55:18;90347.94;;;12.49;39.66
9935;BME280;5006;41.828;23.478;2023-03-14T00:56:23;90345.59;;;11.96;39.16
9935;BME280;5006;41.828;23.478;2023-03-14T00:57:30;90345.63;;;12.47;39.96
9935;BME280;5006;41.828;23.478;2023-03-14T00:58:35;90341.75;;;12.52;40.99
9935;BME280;5006;41.828;23.478;2023-03-14T00:59:40;90339.00;;;12.59;39.63
9935;BME280;5006;41.828;23.478;2023-03-14T01:00:45;90331.44;;;12.47;40.26
9935;BME280;5006;41.828;23.478;2023-03-14T01:01:51;90336.38;;;12.95;39.83
9935;BME280;5006;41.828;23.478;2023-03-14T01:02:57;90332.84;;;12.58;39.60
9935;BME280;5006;41.828;23.478;2023-03-14T01:04:02;90328.81;;;11.82;41.31
9935;BME280;5006;41.828;23.478;2023-03-14T01:05:07;90332.03;;;11.42;42.12
9935;BME280;5006;41.828;23.478;2023-03-14T01:06:16;90332.97;;;11.00;43.00
9935;BME280;5006;41.828;23.478;2023-03-14T01:07:21;90330.75;;;10.54;44.14
9935;BME280;5006;41.828;23.478;2023-03-14T01:08:27;90323.72;;;11.98;41.72
9935;BME280;5006;41.828;23.478;2023-03-14T01:09:32;90327.78;;;11.51;40.29
9935;BME280;5006;41.828;23.478;2023-03-14T01:10:38;90327.78;;;11.51;40.43
9935;BME280;5006;41.828;23.478;2023-03-14T01:11:44;90323.72;;;12.49;39.17
9935;BME280;5006;41.828;23.478;2023-03-14T01:12:52;90321.50;;;11.86;39.43
9935;BME280;5006;41.828;23.478;2023-03-14T01:13:57;90322.88;;;13.36;38.10
9935;BME280;5006;41.828;23.478;2023-03-14T01:15:07;90326.53;;;12.79;38.37
9935;BME280;5006;41.828;23.478;2023-03-14T01:16:13;90319.88;;;13.27;37.54
9935;BME280;5006;41.828;23.478;2023-03-14T01:17:18;90318.88;;;13.14;38.54
9935;BME280;5006;41.828;23.478;2023-03-14T01:18:25;90318.59;;;13.42;38.47
9935;BME280;5006;41.828;23.478;2023-03-14T01:19:29;90316.03;;;12.91;38.52
9935;BME280;5006;41.828;23.478;2023-03-14T01:20:37;90313.44;;;12.81;39.11
9935;BME280;5006;41.828;23.478;2023-03-14T01:21:41;90318.59;;;13.05;38.43
9935;BME280;5006;41.828;23.478;2023-03-14T01:22:47;90317.94;;;13.31;38.55
9935;BME280;5006;41.828;23.478;2023-03-14T01:23:53;90311.41;;;12.91;38.45
9935;BME280;5006;41.828;23.478;2023-03-14T01:24:58;90320.94;;;12.08;40.02
9935;BME280;5006;41.828;23.478;2023-03-14T01:26:03;90314.28;;;12.71;39.84
9935;BME280;5006;41.828;23.478;2023-03-14T01:27:09;90308.19;;;13.07;40.47
9935;BME280;5006;41.828;23.478;2023-03-14T01:28:15;90306.00;;;12.91;39.42
9935;BME280;5006;41.828;23.478;2023-03-14T01:29:21;90302.50;;;12.98;40.31
9935;BME280;5006;41.828;23.478;2023-03-14T01:30:27;90305.66;;;13.60;38.18
9935;BME280;5006;41.828;23.478;2023-03-14T01:31:32;90300.31;;;13.56;38.84
9935;BME280;5006;41.828;23.478;2023-03-14T01:32:38;90294.84;;;13.63;38.46
9935;BME280;5006;41.828;23.478;2023-03-14T01:33:42;90296.06;;;13.85;38.61
9935;BME280;5006;41.828;23.478;2023-03-14T01:34:48;90293.78;;;13.24;38.27
9935;BME280;5006;41.828;23.478;2023-03-14T01:35:53;90287.16;;;13.62;37.96
9935;BME280;5006;41.828;23.478;2023-03-14T01:36:58;90288.34;;;14.14;37.82
9935;BME280;5006;41.828;23.478;2023-03-14T01:38:04;90289.94;;;13.55;38.20
9935;BME280;5006;41.828;23.478;2023-03-14T01:39:09;90281.75;;;13.62;38.54
9935;BME280;5006;41.828;23.478;2023-03-14T01:40:15;90276.22;;;13.72;38.02
9935;BME280;5006;41.828;23.478;2023-03-14T01:41:23;90276.13;;;13.79;37.52
9935;BME280;5006;41.828;23.478;2023-03-14T01:42:31;90280.16;;;13.68;37.50
9935;BME280;5006;41.828;23.478;2023-03-14T01:43:37;90271.50;;;13.80;37.42
9935;BME280;5006;41.828;23.478;2023-03-14T01:44:50;90278.22;;;14.48;36.17
9935;BME280;5006;41.828;23.478;2023-03-14T01:46:20;90280.56;;;14.69;36.00
9935;BME280;5006;41.828;23.478;2023-03-14T01:47:27;90272.38;;;14.72;35.68
9935;BME280;5006;41.828;23.478;2023-03-14T01:48:37;90269.78;;;14.69;36.01
9935;BME280;5006;41.828;23.478;2023-03-14T01:49:43;90278.53;;;14.27;36.76
9935;BME280;5006;41.828;23.478;2023-03-14T01:50:50;90268.94;;;13.99;37.24
9935;BME280;5006;41.828;23.478;2023-03-14T01:51:57;90272.84;;;14.21;36.69
9935;BME280;5006;41.828;23.478;2023-03-14T01:53:04;90271.94;;;14.05;36.76
9935;BME280;5006;41.828;23.478;2023-03-14T01:54:13;90281.50;;;14.36;36.46
9935;BME280;5006;41.828;23.478;2023-03-14T01:55:23;90278.19;;;13.42;37.31
9935;BME280;5006;41.828;23.478;2023-03-14T01:56:30;90275.56;;;13.35;37.87
9935;BME280;5006;41.828;23.478;2023-03-14T01:57:37;90279.06;;;13.32;37.53
9935;BME280;5006;41.828;23.478;2023-03-14T01:58:48;90275.00;;;12.80;38.03
9935;BME280;5006;41.828;23.478;2023-03-14T01:59:59;90282.34;;;12.36;38.30
9935;BME280;5006;41.828;23.478;2023-03-14T02:01:07;90283.28;;;12.59;38.85
9935;BME280;5006;41.828;23.478;2023-03-14T02:02:13;90284.38;;;12.21;39.59
9935;BME280;5006;41.828;23.478;2023-03-14T02:03:21;90282.09;;;12.20;40.52
9935;BME280;5006;41.828;23.478;2023-03-14T02:04:30;90285.63;;;12.54;38.38
9935;BME280;5006;41.828;23.478;2023-03-14T02:05:39;90276.31;;;12.65;39.86
9935;BME280;5006;41.828;23.478;2023-03-14T02:06:54;90280.16;;;13.01;38.48
9935;BME280;5006;41.828;23.478;2023-03-14T02:08:08;90280.34;;;13.80;37.53
9935;BME280;5006;41.828;23.478;2023-03-14T02:09:21;90275.81;;;11.82;40.93
9935;BME280;5006;41.828;23.478;2023-03-14T02:10:30;90277.53;;;12.57;39.90
9935;BME280;5006;41.828;23.478;2023-03-14T02:11:39;90285.25;;;12.08;39.47
9935;BME280;5006;41.828;23.478;2023-03-14T02:12:55;90280.78;;;11.15;40.22
9935;BME280;5006;41.828;23.478;2023-03-14T02:14:29;90274.50;;;13.29;38.24
9935;BME280;5006;41.828;23.478;2023-03-14T02:15:51;90271.88;;;13.52;38.42
9935;BME280;5006;41.828;23.478;2023-03-14T02:17:17;90269.78;;;13.36;38.46
9935;BME280;5006;41.828;23.478;2023-03-14T02:18:49;90266.09;;;13.23;38.58
9935;BME280;5006;41.828;23.478;2023-03-14T02:20:15;90267.78;;;13.70;38.92
9935;BME280;5006;41.828;23.478;2023-03-14T02:21:40;90264.78;;;13.05;40.30
9935;BME280;5006;41.828;23.478;2023-03-14T02:22:47;90270.28;;;12.91;41.61
9935;BME280;5006;41.828;23.478;2023-03-14T02:24:00;90271.50;;;13.20;40.55
9935;BME280;5006;41.828;23.478;2023-03-14T02:25:15;90278.50;;;13.74;39.93
9935;BME280;5006;41.828;23.478;2023-03-14T02:26:26;90273.50;;;13.46;39.79
9935;BME280;5006;41.828;23.478;2023-03-14T02:27:34;90287.47;;;11.65;41.21
9935;BME280;5006;41.828;23.478;2023-03-14T02:28:39;90282.25;;;11.99;41.64
9935;BME280;5006;41.828;23.478;2023-03-14T02:29:49;90281.59;;;13.46;39.39
9935;BME280;5006;41.828;23.478;2023-03-14T02:30:56;90291.69;;;13.05;39.59
9935;BME280;5006;41.828;23.478;2023-03-14T02:32:01;90285.97;;;13.33;39.02
9935;BME280;5006;41.828;23.478;2023-03-14T02:33:09;90285.53;;;12.64;39.89
9935;BME280;5006;41.828;23.478;2023-03-14T02:34:15;90291.56;;;12.75;39.97
9935;BME280;5006;41.828;23.478;2023-03-14T02:35:22;90288.09;;;12.78;41.02
9935;BME280;5006;41.828;23.478;2023-03-14T02:36:29;90286.38;;;12.98;40.09
9935;BME280;5006;41.828;23.478;2023-03-14T02:37:38;90289.69;;;13.12;40.66
9935;BME280;5006;41.828;23.478;2023-03-14T02:38:49;90284.16;;;12.86;40.21
9935;BME280;5006;41.828;23.478;2023-03-14T02:39:56;90289.50;;;11.37;42.69
9935;BME280;5006;41.828;23.478;2023-03-14T02:41:03;90291.31;;;11.57;42.34
9935;BME280;5006;41.828;23.478;2023-03-14T02:42:13;90290.41;;;11.81;41.74
9935;BME280;5006;41.828;23.478;2023-03-14T02:43:20;90290.88;;;12.68;41.67
9935;BME280;5006;41.828;23.478;2023-03-14T02:44:30;90289.34;;;11.72;41.86
9935;BME280;5006;41.828;23.478;2023-03-14T02:45:42;90281.66;;;11.67;42.37
9935;BME280;5006;41.828;23.478;2023-03-14T02:46:47;90280.13;;;11.73;43.15
9935;BME280;5006;41.828;23.478;2023-03-14T02:47:57;90274.53;;;11.39;43.52
9935;BME280;5006;41.828;23.478;2023-03-14T02:49:07;90273.31;;;11.58;42.63
9935;BME280;5006;41.828;23.478;2023-03-14T02:50:17;90269.38;;;10.83;44.50
9935;BME280;5006;41.828;23.478;2023-03-14T02:51:24;90273.81;;;11.25;44.67
9935;BME280;5006;41.828;23.478;2023-03-14T02:52:31;90268.16;;;12.72;42.30
9935;BME280;5006;41.828;23.478;2023-03-14T02:53:37;90281.53;;;11.91;42.19
9935;BME280;5006;41.828;23.478;2023-03-14T02:54:47;90271.41;;;13.27;40.82
9935;BME280;5006;41.828;23.478;2023-03-14T02:55:52;90275.53;;;11.70;41.57
9935;BME280;5006;41.828;23.478;2023-03-14T02:57:00;90273.50;;;11.12;43.26
9935;BME280;5006;41.828;23.478;2023-03-14T02:58:06;90274.09;;;11.44;42.96
9935;BME280;5006;41.828;23.478;2023-03-14T02:59:14;90272.56;;;11.50;43.10
9935;BME280;5006;41.828;23.478;2023-03-14T03:00:26;90270.16;;;13.35;40.19
9935;BME280;5006;41.828;23.478;2023-03-14T03:01:34;90269.81;;;13.33;39.94
9935;BME280;5006;41.828;23.478;2023-03-14T03:02:39;90271.88;;;13.52;39.97
9935;BME280;5006;41.828;23.478;2023-03-14T03:03:45;90275.53;;;13.65;39.14
9935;BME280;5006;41.828;23.478;2023-03-14T03:04:50;90273.59;;;13.69;39.67
9935;BME280;5006;41.828;23.478;2023-03-14T03:05:56;90275.00;;;13.50;40.27
9935;BME280;5006;41.828;23.478;2023-03-14T03:07:01;90272.88;;;13.35;40.43
9935;BME280;5006;41.828;23.478;2023-03-14T03:08:06;90273.97;;;13.41;40.37
9935;BME280;5006;41.828;23.478;2023-03-14T03:09:12;90269.94;;;13.52;40.52
9935;BME280;5006;41.828;23.478;2023-03-14T03:10:17;90269.56;;;13.54;39.42
9935;BME280;5006;41.828;23.478;2023-03-14T03:11:22;90269.59;;;13.77;39.46
9935;BME280;5006;41.828;23.478;2023-03-14T03:12:28;90277.38;;;14.28;38.76
9935;BME280;5006;41.828;23.478;2023-03-14T03:13:33;90272.25;;;13.80;38.27
9935;BME280;5006;41.828;23.478;2023-03-14T03:14:42;90271.25;;;13.07;39.60
9935;BME280;5006;41.828;23.478;2023-03-14T03:15:47;90263.75;;;13.25;38.91
9935;BME280;5006;41.828;23.478;2023-03-14T03:16:53;90272.16;;;12.98;39.89
9935;BME280;5006;41.828;23.478;2023-03-14T03:17:59;90263.59;;;13.66;38.20
9935;BME280;5006;41.828;23.478;2023-03-14T03:19:05;90260.09;;;13.39;38.19
9935;BME280;5006;41.828;23.478;2023-03-14T03:20:10;90266.00;;;13.30;38.16
9935;BME280;5006;41.828;23.478;2023-03-14T03:21:16;90262.88;;;13.35;38.70
9935;BME280;5006;41.828;23.478;2023-03-14T03:22:22;90251.88;;;13.19;39.52
9935;BME280;5006;41.828;23.478;2023-03-14T03:23:28;90255.84;;;13.41;39.57
9935;BME280;5006;41.828;23.478;2023-03-14T03:24:32;90255.78;;;13.75;38.18
9935;BME280;5006;41.828;23.478;2023-03-14T03:25:39;90255.84;;;13.98;38.21
9935;BME280;5006;41.828;23.478;2023-03-14T03:26:45;90258.06;;;14.03;38.20
9935;BME280;5006;41.828;23.478;2023-03-14T03:27:50;90261.47;;;12.87;40.09
9935;BME280;5006;41.828;23.478;2023-03-14T03:28:56;90262.03;;;12.72;40.14
9935;BME280;5006;41.828;23.478;2023-03-14T03:30:05;90270.41;;;11.17;41.64
9935;BME280;5006;41.828;23.478;2023-03-14T03:31:12;90274.31;;;10.95;42.25
9935;BME280;5006;41.828;23.478;2023-03-14T03:32:17;90274.31;;;10.95;42.54
9935;BME280;5006;41.828;23.478;2023-03-14T03:33:22;90283.25;;;10.68;43.09
9935;BME280;5006;41.828;23.478;2023-03-14T03:34:29;90278.53;;;11.03;42.75
9935;BME280;5006;41.828;23.478;2023-03-14T03:35:41;90281.78;;;10.32;43.90
9935;BME280;5006;41.828;23.478;2023-03-14T03:36:49;90276.72;;;10.66;43.72
9935;BME280;5006;41.828;23.478;2023-03-14T03:37:54;90274.38;;;10.81;43.15
9935;BME280;5006;41.828;23.478;2023-03-14T03:38:59;90267.88;;;11.68;42.17
9935;BME280;5006;41.828;23.478;2023-03-14T03:40:05;90276.06;;;11.40;41.56
9935;BME280;5006;41.828;23.478;2023-03-14T03:41:13;90277.53;;;11.48;40.46
9935;BME280;5006;41.828;23.478;2023-03-14T03:42:19;90269.50;;;9.86;43.58
9935;BME280;5006;41.828;23.478;2023-03-14T03:43:24;90271.91;;;12.82;41.66
9935;BME280;5006;41.828;23.478;2023-03-14T03:44:29;90273.94;;;12.30;40.35
9935;BME280;5006;41.828;23.478;2023-03-14T03:45:35;90279.84;;;12.55;39.58
9935;BME280;5006;41.828;23.478;2023-03-14T03:46:41;90269.88;;;13.26;38.64
9935;BME280;5006;41.828;23.478;2023-03-14T03:47:46;90270.72;;;12.46;39.92
9935;BME280;5006;41.828;23.478;2023-03-14T03:48:54;90269.38;;;10.90;42.18
9935;BME280;5006;41.828;23.478;2023-03-14T03:50:00;90271.72;;;10.68;43.57
9935;BME280;5006;41.828;23.478;2023-03-14T03:51:05;90270.03;;;11.87;42.43
9935;BME280;5006;41.828;23.478;2023-03-14T03:52:11;90262.59;;;12.93;40.77
9935;BME280;5006;41.828;23.478;2023-03-14T03:53:16;90269.47;;;11.52;41.73
9935;BME280;5006;41.828;23.478;2023-03-14T03:54:22;90269.16;;;11.36;42.58
9935;BME280;5006;41.828;23.478;2023-03-14T03:55:27;90264.66;;;11.19;42.61
9935;BME280;5006;41.828;23.478;2023-03-14T03:56:33;90266.75;;;11.62;41.75
9935;BME280;5006;41.828;23.478;2023-03-14T03:57:38;90267.66;;;11.31;42.15
9935;BME280;5006;41.828;23.478;2023-03-14T03:58:44;90270.56;;;11.68;41.52
9935;BME280;5006;41.828;23.478;2023-03-14T03:59:49;90265.13;;;10.96;42.61
9935;BME280;5006;41.828;23.478;2023-03-14T04:00:56;90271.56;;;11.16;42.50
9935;BME280;5006;41.828;23.478;2023-03-14T04:02:01;90267.94;;;10.55;43.00
9935;BME280;5006;41.828;23.478;2023-03-14T04:03:07;90263.69;;;10.68;43.72
9935;BME280;5006;41.828;23.478;2023-03-14T04:04:11;90264.91;;;9.86;44.70
9935;BME280;5006;41.828;23.478;2023-03-14T04:05:17;90271.06;;;9.90;44.64
9935;BME280;5006;41.828;23.478;2023-03-14T04:06:31;90266.06;;;9.64;45.95
9935;BME280;5006;41.828;23.478;2023-03-14T04:07:39;90272.88;;;9.30;47.32
9935;BME280;5006;41.828;23.478;2023-03-14T04:08:45;90267.59;;;9.76;46.27
9935;BME280;5006;41.828;23.478;2023-03-14T04:10:03;90264.53;;;9.91;46.96
9935;BME280;5006;41.828;23.478;2023-03-14T04:11:14;90264.09;;;9.44;47.20
9935;BME280;5006;41.828;23.478;2023-03-14T04:12:38;90263.00;;;10.32;46.95
9935;BME280;5006;41.828;23.478;2023-03-14T04:13:48;90264.94;;;10.14;47.04
9935;BME280;5006;41.828;23.478;2023-03-14T04:14:54;90261.84;;;10.37;46.14
9935;BME280;5006;41.828;23.478;2023-03-14T04:16:01;90261.41;;;10.56;45.28
9935;BME280;5006;41.828;23.478;2023-03-14T04:17:08;90258.50;;;11.18;44.81
9935;BME280;5006;41.828;23.478;2023-03-14T04:18:12;90252.53;;;12.20;42.11
9935;BME280;5006;41.828;23.478;2023-03-14T04:19:20;90250.56;;;11.76;42.99
9935;BME280;5006;41.828;23.478;2023-03-14T04:20:25;90242.47;;;12.27;42.28
9935;BME280;5006;41.828;23.478;2023-03-14T04:21:31;90257.84;;;10.90;44.41
9935;BME280;5006;41.828;23.478;2023-03-14T04:22:36;90253.03;;;10.36;45.24
9935;BME280;5006;41.828;23.478;2023-03-14T04:23:42;90252.31;;;10.18;44.82
9935;BME280;5006;41.828;23.478;2023-03-14T04:24:46;90254.97;;;10.25;45.53
9935;BME280;5006;41.828;23.478;2023-03-14T04:25:53;90253.38;;;10.52;44.22
9935;BME280;5006;41.828;23.478;2023-03-14T04:26:58;90252.63;;;10.52;44.32
9935;BME280;5006;41.828;23.478;2023-03-14T04:28:04;90253.19;;;11.11;43.51
9935;BME280;5006;41.828;23.478;2023-03-14T04:29:10;90261.03;;;10.54;43.90
9935;BME280;5006;41.828;23.478;2023-03-14T04:30:15;90264.06;;;10.73;43.78
9935;BME280;5006;41.828;23.478;2023-03-14T04:31:27;90255.97;;;10.90;42.70
9935;BME280;5006;41.828;23.478;2023-03-14T04:32:33;90258.34;;;11.50;42.63
9935;BME280;5006;41.828;23.478;2023-03-14T04:33:38;90255.97;;;10.90;43.06
9935;BME280;5006;41.828;23.478;2023-03-14T04:34:45;90262.53;;;10.72;44.06
9935;BME280;5006;41.828;23.478;2023-03-14T04:35:53;90262.16;;;10.70;43.47
9935;BME280;5006;41.828;23.478;2023-03-14T04:36:59;90254.44;;;10.82;44.81
9935;BME280;5006;41.828;23.478;2023-03-14T04:38:13;90261.09;;;10.05;46.30
9935;BME280;5006;41.828;23.478;2023-03-14T04:39:22;90261.84;;;9.95;46.30
9935;BME280;5006;41.828;23.478;2023-03-14T04:40:37;90261.09;;;10.19;45.24
9935;BME280;5006;41.828;23.478;2023-03-14T04:41:44;90259.56;;;10.25;44.86
9935;BME280;5006;41.828;23.478;2023-03-14T04:42:50;90265.63;;;10.67;44.04
9935;BME280;5006;41.828;23.478;2023-03-14T04:43:55;90265.34;;;11.30;43.10
9935;BME280;5006;41.828;23.478;2023-03-14T04:45:01;90258.50;;;11.18;43.41
9935;BME280;5006;41.828;23.478;2023-03-14T04:46:08;90272.03;;;10.94;43.25
9935;BME280;5006;41.828;23.478;2023-03-14T04:47:15;90263.03;;;11.35;42.60
9935;BME280;5006;41.828;23.478;2023-03-14T04:48:22;90264.63;;;11.22;42.15
9935;BME280;5006;41.828;23.478;2023-03-14T04:49:29;90260.84;;;11.09;42.61
9935;BME280;5006;41.828;23.478;2023-03-14T04:50:33;90258.88;;;11.27;41.60
9935;BME280;5006;41.828;23.478;2023-03-14T04:51:39;90259.63;;;12.40;40.30
9935;BME280;5006;41.828;23.478;2023-03-14T04:52:43;90251.66;;;13.37;39.06
9935;BME280;5006;41.828;23.478;2023-03-14T04:53:49;90252.56;;;13.27;39.42
9935;BME280;5006;41.828;23.478;2023-03-14T04:54:54;90254.31;;;11.10;42.17
9935;BME280;5006;41.828;23.478;2023-03-14T04:56:02;90260.84;;;11.16;42.33
9935;BME280;5006;41.828;23.478;2023-03-14T04:57:14;90257.72;;;11.21;43.30
9935;BME280;5006;41.828;23.478;2023-03-14T04:58:21;90258.69;;;11.55;43.46
9935;BME280;5006;41.828;23.478;2023-03-14T04:59:27;90253.59;;;11.06;43.11
9935;BME280;5006;41.828;23.478;2023-03-14T05:00:37;90254.13;;;12.10;42.52
9935;BME280;5006;41.828;23.478;2023-03-14T05:01:51;90252.13;;;13.62;39.88
9935;BME280;5006;41.828;23.478;2023-03-14T05:03:18;90260.25;;;10.64;42.22
9935;BME280;5006;41.828;23.478;2023-03-14T05:04:51;90260.31;;;9.80;44.89
9935;BME280;5006;41.828;23.478;2023-03-14T05:06:34;90255.91;;;8.77;46.11
9935;BME280;5006;41.828;23.478;2023-03-14T05:07:46;90260.84;;;8.79;45.91
9935;BME280;5006;41.828;23.478;2023-03-14T05:09:14;90264.09;;;9.26;45.50
9935;BME280;5006;41.828;23.478;2023-03-14T05:10:26;90266.44;;;9.94;44.80
9935;BME280;5006;41.828;23.478;2023-03-14T05:11:45;90254.19;;;9.48;45.12
9935;BME280;5006;41.828;23.478;2023-03-14T05:13:23;90266.44;;;9.91;43.55
9935;BME280;5006;41.828;23.478;2023-03-14T05:14:52;90254.81;;;10.84;42.62
9935;BME280;5006;41.828;23.478;2023-03-14T05:16:18;90262.56;;;11.47;41.39
9935;BME280;5006;41.828;23.478;2023-03-14T05:17:29;90260.53;;;10.90;41.92
9935;BME280;5006;41.828;23.478;2023-03-14T05:18:44;90256.22;;;11.17;42.15
9935;BME280;5006;41.828;23.478;2023-03-14T05:20:03;90254.88;;;11.60;41.04
9935;BME280;5006;41.828;23.478;2023-03-14T05:21:27;90258.34;;;11.50;41.13
9935;BME280;5006;41.828;23.478;2023-03-14T05:22:56;90242.78;;;12.73;40.49
9935;BME280;5006;41.828;23.478;2023-03-14T05:24:19;90246.56;;;12.42;41.28
9935;BME280;5006;41.828;23.478;2023-03-14T05:25:43;90251.66;;;11.79;41.10
9935;BME280;5006;41.828;23.478;2023-03-14T05:27:17;90251.38;;;11.66;42.76
9935;BME280;5006;41.828;23.478;2023-03-14T05:28:41;90247.97;;;11.62;41.53
9935;BME280;5006;41.828;23.478;2023-03-14T05:29:59;90248.97;;;11.79;41.62
9935;BME280;5006;41.828;23.478;2023-03-14T05:31:18;90250.19;;;12.22;42.00
9935;BME280;5006;41.828;23.478;2023-03-14T05:32:47;90254.78;;;13.02;40.98
9935;BME280;5006;41.828;23.478;2023-03-14T05:34:29;90254.06;;;12.98;40.45
9935;BME280;5006;41.828;23.478;2023-03-14T05:35:49;90255.13;;;12.27;41.10
9935;BME280;5006;41.828;23.478;2023-03-14T05:37:08;90262.34;;;11.89;41.47
9935;BME280;5006;41.828;23.478;2023-03-14T05:38:25;90260.47;;;11.07;42.88
9935;BME280;5006;41.828;23.478;2023-03-14T05:39:50;90265.63;;;10.53;43.75
9935;BME280;5006;41.828;23.478;2023-03-14T05:41:19;90276.31;;;10.70;43.13
9935;BME280;5006;41.828;23.478;2023-03-14T05:42:45;90270.41;;;11.89;41.26
9935;BME280;5006;41.828;23.478;2023-03-14T05:44:14;90268.22;;;12.25;40.13
9935;BME280;5006;41.828;23.478;2023-03-14T05:45:52;90270.47;;;11.00;42.18
9935;BME280;5006;41.828;23.478;2023-03-14T05:47:16;90267.00;;;11.82;41.05
9935;BME280;5006;41.828;23.478;2023-03-14T05:48:40;90253.44;;;14.03;38.36
9935;BME280;5006;41.828;23.478;2023-03-14T05:50:08;90253.78;;;15.20;37.45
9935;BME280;5006;41.828;23.478;2023-03-14T05:51:27;90253.69;;;14.39;38.34
9935;BME280;5006;41.828;23.478;2023-03-14T05:52:49;90255.97;;;14.17;38.88
9935;BME280;5006;41.828;23.478;2023-03-14T05:54:08;90255.09;;;15.31;37.28
9935;BME280;5006;41.828;23.478;2023-03-14T05:55:24;90253.25;;;15.06;37.00
9935;BME280;5006;41.828;23.478;2023-03-14T05:56:42;90250.72;;;14.99;37.02
9935;BME280;5006;41.828;23.478;2023-03-14T05:58:14;90256.13;;;14.99;37.11
9935;BME280;5006;41.828;23.478;2023-03-14T05:59:38;90249.31;;;14.91;36.82
9935;BME280;5006;41.828;23.478;2023-03-14T06:00:54;90252.19;;;13.25;38.62
9935;BME280;5006;41.828;23.478;2023-03-14T06:02:17;90245.50;;;13.06;38.96
9935;BME280;5006;41.828;23.478;2023-03-14T06:03:35;90250.25;;;12.95;39.43
9935;BME280;5006;41.828;23.478;2023-03-14T06:04:42;90250.69;;;13.80;39.30
9935;BME280;5006;41.828;23.478;2023-03-14T06:05:51;90254.16;;;14.99;36.57
9935;BME280;5006;41.828;23.478;2023-03-14T06:06:59;90262.09;;;11.70;40.68
9935;BME280;5006;41.828;23.478;2023-03-14T06:08:04;90262.34;;;11.17;41.43
9935;BME280;5006;41.828;23.478;2023-03-14T06:09:10;90266.25;;;11.06;41.56
9935;BME280;5006;41.828;23.478;2023-03-14T06:10:18;90263.16;;;11.07;42.15
9935;BME280;5006;41.828;23.478;2023-03-14T06:11:24;90260.44;;;11.18;41.89
9935;BME280;5006;41.828;23.478;2023-03-14T06:12:29;90262.50;;;10.82;41.89
9935;BME280;5006;41.828;23.478;2023-03-14T06:13:35;90259.75;;;10.96;42.12
9935;BME280;5006;41.828;23.478;2023-03-14T06:14:40;90258.38;;;10.50;42.18